Terminal Aerodrome Forecast
Issued by NWS

Current Version | Previous Version | Text Only | Print | Product List | Glossary On
Versions: 1 2 3 4 5 6 7 8 9 10 11 12 13 14 15 16 17 18 19 20 21 22 23 24 25 26 27 28 29 30 31 32 33 34 35 36 37 38 39 40 41 42 43 44 45 46 47 48 49 50
000
FTUS41 KCTP 021128
TAFJST
TAF
KJST 021128Z 0212/0312 25008G16KT P6SM BKN008 OVC012
     FM021500 25008G16KT P6SM BKN025
     FM021900 26010G20KT 5SM -SHRA BR BKN035
      TEMPO 0220/0224 2SM TSRA BR OVC030CB
     FM030200 29007KT P6SM SCT030=

USA.gov is the U.S. government's official web portal to all federal, state and local government web resources and services.